sensor_id;sensor_type;location;lat;lon;timestamp;P1;durP1;ratioP1;P2;durP2;ratioP2
69621;SDS011;56841;55.964;37.674;2023-04-25T00:01:38;19.67;;;6.28;;
69621;SDS011;56841;55.964;37.674;2023-04-25T00:04:04;16.65;;;6.00;;
69621;SDS011;56841;55.964;37.674;2023-04-25T00:06:31;16.42;;;6.15;;
69621;SDS011;56841;55.964;37.674;2023-04-25T00:08:58;13.55;;;6.30;;
69621;SDS011;56841;55.964;37.674;2023-04-25T00:11:24;16.42;;;6.53;;
69621;SDS011;56841;55.964;37.674;2023-04-25T00:13:49;18.40;;;6.93;;
69621;SDS011;56841;55.964;37.674;2023-04-25T00:16:19;22.45;;;6.10;;
69621;SDS011;56841;55.964;37.674;2023-04-25T00:18:45;16.70;;;6.60;;
69621;SDS011;56841;55.964;37.674;2023-04-25T00:21:17;24.52;;;6.57;;
69621;SDS011;56841;55.964;37.674;2023-04-25T00:23:45;25.27;;;6.65;;
69621;SDS011;56841;55.964;37.674;2023-04-25T00:26:12;19.20;;;6.78;;
69621;SDS011;56841;55.964;37.674;2023-04-25T00:28:39;18.90;;;6.50;;
69621;SDS011;56841;55.964;37.674;2023-04-25T00:31:05;19.58;;;6.72;;
69621;SDS011;56841;55.964;37.674;2023-04-25T00:33:31;19.58;;;6.25;;
69621;SDS011;56841;55.964;37.674;2023-04-25T00:35:57;16.42;;;6.28;;
69621;SDS011;56841;55.964;37.674;2023-04-25T00:38:22;15.63;;;6.00;;
69621;SDS011;56841;55.964;37.674;2023-04-25T00:40:49;17.83;;;6.82;;
69621;SDS011;56841;55.964;37.674;2023-04-25T00:43:15;18.13;;;6.50;;
69621;SDS011;56841;55.964;37.674;2023-04-25T00:45:41;16.92;;;6.68;;
69621;SDS011;56841;55.964;37.674;2023-04-25T00:48:08;19.65;;;6.82;;
69621;SDS011;56841;55.964;37.674;2023-04-25T00:50:35;15.48;;;6.30;;
69621;SDS011;56841;55.964;37.674;2023-04-25T00:53:02;24.65;;;7.25;;
69621;SDS011;56841;55.964;37.674;2023-04-25T00:55:29;24.02;;;7.07;;
69621;SDS011;56841;55.964;37.674;2023-04-25T00:57:57;20.48;;;6.65;;
69621;SDS011;56841;55.964;37.674;2023-04-25T01:00:23;15.23;;;6.50;;
69621;SDS011;56841;55.964;37.674;2023-04-25T01:02:49;21.67;;;6.90;;
69621;SDS011;56841;55.964;37.674;2023-04-25T01:05:15;22.02;;;6.72;;
69621;SDS011;56841;55.964;37.674;2023-04-25T01:07:42;18.58;;;6.68;;
69621;SDS011;56841;55.964;37.674;2023-04-25T01:10:08;17.80;;;6.55;;
69621;SDS011;56841;55.964;37.674;2023-04-25T01:12:35;15.48;;;6.30;;
69621;SDS011;56841;55.964;37.674;2023-04-25T01:15:01;16.92;;;6.18;;
69621;SDS011;56841;55.964;37.674;2023-04-25T01:17:29;15.55;;;6.13;;
69621;SDS011;56841;55.964;37.674;2023-04-25T01:19:57;14.35;;;6.38;;
69621;SDS011;56841;55.964;37.674;2023-04-25T01:22:23;15.93;;;6.65;;
69621;SDS011;56841;55.964;37.674;2023-04-25T01:24:50;17.20;;;6.13;;
69621;SDS011;56841;55.964;37.674;2023-04-25T01:27:16;16.05;;;6.30;;
69621;SDS011;56841;55.964;37.674;2023-04-25T01:29:43;22.20;;;6.03;;
69621;SDS011;56841;55.964;37.674;2023-04-25T01:32:09;13.73;;;5.95;;
69621;SDS011;56841;55.964;37.674;2023-04-25T01:34:35;19.20;;;6.13;;
69621;SDS011;56841;55.964;37.674;2023-04-25T01:37:01;17.52;;;6.90;;
69621;SDS011;56841;55.964;37.674;2023-04-25T01:39:28;18.35;;;6.60;;
69621;SDS011;56841;55.964;37.674;2023-04-25T01:41:54;15.00;;;6.53;;
69621;SDS011;56841;55.964;37.674;2023-04-25T01:44:21;15.25;;;6.28;;
69621;SDS011;56841;55.964;37.674;2023-04-25T01:46:47;17.02;;;6.95;;
69621;SDS011;56841;55.964;37.674;2023-04-25T01:49:13;17.33;;;6.43;;
69621;SDS011;56841;55.964;37.674;2023-04-25T01:51:40;15.60;;;6.15;;
69621;SDS011;56841;55.964;37.674;2023-04-25T01:54:06;20.35;;;6.40;;
69621;SDS011;56841;55.964;37.674;2023-04-25T01:56:33;19.88;;;6.75;;
69621;SDS011;56841;55.964;37.674;2023-04-25T01:59:04;18.30;;;6.47;;
69621;SDS011;56841;55.964;37.674;2023-04-25T02:01:55;17.08;;;6.57;;
69621;SDS011;56841;55.964;37.674;2023-04-25T02:04:26;19.55;;;6.70;;
69621;SDS011;56841;55.964;37.674;2023-04-25T02:06:52;19.35;;;6.97;;
69621;SDS011;56841;55.964;37.674;2023-04-25T02:09:18;21.98;;;7.00;;
69621;SDS011;56841;55.964;37.674;2023-04-25T02:11:49;18.20;;;6.85;;
69621;SDS011;56841;55.964;37.674;2023-04-25T02:14:24;19.13;;;6.85;;
69621;SDS011;56841;55.964;37.674;2023-04-25T02:17:00;18.35;;;6.72;;
69621;SDS011;56841;55.964;37.674;2023-04-25T02:19:27;14.10;;;6.60;;
69621;SDS011;56841;55.964;37.674;2023-04-25T02:21:52;13.77;;;6.97;;
69621;SDS011;56841;55.964;37.674;2023-04-25T02:24:18;17.92;;;6.82;;
69621;SDS011;56841;55.964;37.674;2023-04-25T02:26:44;14.80;;;6.70;;
69621;SDS011;56841;55.964;37.674;2023-04-25T02:29:12;15.30;;;6.47;;
69621;SDS011;56841;55.964;37.674;2023-04-25T02:31:38;14.90;;;5.93;;
69621;SDS011;56841;55.964;37.674;2023-04-25T02:34:04;18.70;;;7.32;;
69621;SDS011;56841;55.964;37.674;2023-04-25T02:36:30;22.27;;;7.78;;
69621;SDS011;56841;55.964;37.674;2023-04-25T02:38:59;30.90;;;8.15;;
69621;SDS011;56841;55.964;37.674;2023-04-25T02:41:26;24.98;;;8.40;;
69621;SDS011;56841;55.964;37.674;2023-04-25T02:43:54;18.98;;;6.90;;
69621;SDS011;56841;55.964;37.674;2023-04-25T02:46:20;17.58;;;6.75;;
69621;SDS011;56841;55.964;37.674;2023-04-25T02:48:46;16.20;;;7.47;;
69621;SDS011;56841;55.964;37.674;2023-04-25T02:51:11;19.30;;;6.72;;
69621;SDS011;56841;55.964;37.674;2023-04-25T02:53:38;17.70;;;6.35;;
69621;SDS011;56841;55.964;37.674;2023-04-25T02:56:03;17.85;;;6.82;;
69621;SDS011;56841;55.964;37.674;2023-04-25T02:58:29;27.60;;;7.47;;
69621;SDS011;56841;55.964;37.674;2023-04-25T03:00:55;15.10;;;7.00;;
69621;SDS011;56841;55.964;37.674;2023-04-25T03:03:21;29.48;;;7.47;;
69621;SDS011;56841;55.964;37.674;2023-04-25T03:05:48;20.98;;;7.53;;
69621;SDS011;56841;55.964;37.674;2023-04-25T03:08:18;38.78;;;9.05;;
69621;SDS011;56841;55.964;37.674;2023-04-25T03:10:44;27.73;;;7.15;;
69621;SDS011;56841;55.964;37.674;2023-04-25T03:13:11;31.80;;;8.68;;
69621;SDS011;56841;55.964;37.674;2023-04-25T03:15:37;47.30;;;8.73;;
69621;SDS011;56841;55.964;37.674;2023-04-25T03:18:04;32.72;;;8.13;;
69621;SDS011;56841;55.964;37.674;2023-04-25T03:20:30;42.75;;;8.80;;
69621;SDS011;56841;55.964;37.674;2023-04-25T03:22:55;29.80;;;7.30;;
69621;SDS011;56841;55.964;37.674;2023-04-25T03:25:21;47.65;;;7.35;;
69621;SDS011;56841;55.964;37.674;2023-04-25T03:27:47;49.83;;;8.77;;
69621;SDS011;56841;55.964;37.674;2023-04-25T03:30:13;47.88;;;8.70;;
69621;SDS011;56841;55.964;37.674;2023-04-25T03:32:41;25.63;;;8.05;;
69621;SDS011;56841;55.964;37.674;2023-04-25T03:35:06;34.67;;;8.60;;
69621;SDS011;56841;55.964;37.674;2023-04-25T03:37:33;23.90;;;7.00;;
69621;SDS011;56841;55.964;37.674;2023-04-25T03:39:59;33.30;;;7.35;;
69621;SDS011;56841;55.964;37.674;2023-04-25T03:42:35;31.33;;;7.90;;
69621;SDS011;56841;55.964;37.674;2023-04-25T03:45:01;27.25;;;7.38;;
69621;SDS011;56841;55.964;37.674;2023-04-25T03:47:29;21.80;;;6.95;;
69621;SDS011;56841;55.964;37.674;2023-04-25T03:49:55;25.15;;;8.55;;
69621;SDS011;56841;55.964;37.674;2023-04-25T03:52:22;26.00;;;7.70;;
69621;SDS011;56841;55.964;37.674;2023-04-25T03:54:48;21.42;;;6.75;;
69621;SDS011;56841;55.964;37.674;2023-04-25T03:57:17;20.10;;;7.22;;
69621;SDS011;56841;55.964;37.674;2023-04-25T03:59:43;22.85;;;7.85;;
69621;SDS011;56841;55.964;37.674;2023-04-25T04:02:12;20.35;;;7.50;;
69621;SDS011;56841;55.964;37.674;2023-04-25T04:04:39;20.52;;;7.43;;
69621;SDS011;56841;55.964;37.674;2023-04-25T04:07:05;21.02;;;7.25;;
69621;SDS011;56841;55.964;37.674;2023-04-25T04:09:34;25.35;;;7.60;;
69621;SDS011;56841;55.964;37.674;2023-04-25T04:12:05;27.98;;;7.43;;
69621;SDS011;56841;55.964;37.674;2023-04-25T04:14:31;22.85;;;8.40;;
69621;SDS011;56841;55.964;37.674;2023-04-25T04:16:57;28.77;;;8.20;;
69621;SDS011;56841;55.964;37.674;2023-04-25T04:19:25;27.85;;;7.65;;
69621;SDS011;56841;55.964;37.674;2023-04-25T04:22:17;27.95;;;7.97;;
69621;SDS011;56841;55.964;37.674;2023-04-25T04:24:43;22.10;;;8.32;;
69621;SDS011;56841;55.964;37.674;2023-04-25T04:27:10;25.48;;;7.18;;
69621;SDS011;56841;55.964;37.674;2023-04-25T04:29:52;28.92;;;7.70;;
69621;SDS011;56841;55.964;37.674;2023-04-25T04:32:36;17.42;;;7.75;;
69621;SDS011;56841;55.964;37.674;2023-04-25T04:35:03;23.02;;;7.13;;
69621;SDS011;56841;55.964;37.674;2023-04-25T04:37:32;22.38;;;8.00;;
69621;SDS011;56841;55.964;37.674;2023-04-25T04:40:00;25.67;;;7.57;;
69621;SDS011;56841;55.964;37.674;2023-04-25T04:42:51;21.77;;;7.65;;
69621;SDS011;56841;55.964;37.674;2023-04-25T04:45:36;16.65;;;7.22;;
69621;SDS011;56841;55.964;37.674;2023-04-25T04:48:36;20.23;;;8.23;;
69621;SDS011;56841;55.964;37.674;2023-04-25T04:51:17;19.02;;;7.82;;
69621;SDS011;56841;55.964;37.674;2023-04-25T04:54:15;17.75;;;8.10;;
69621;SDS011;56841;55.964;37.674;2023-04-25T04:56:53;21.13;;;7.85;;
69621;SDS011;56841;55.964;37.674;2023-04-25T04:59:48;18.27;;;7.68;;
69621;SDS011;56841;55.964;37.674;2023-04-25T05:02:38;21.50;;;7.97;;
69621;SDS011;56841;55.964;37.674;2023-04-25T05:05:28;21.38;;;7.78;;
69621;SDS011;56841;55.964;37.674;2023-04-25T05:08:32;18.83;;;7.95;;
69621;SDS011;56841;55.964;37.674;2023-04-25T05:11:19;16.20;;;8.05;;
69621;SDS011;56841;55.964;37.674;2023-04-25T05:13:55;18.58;;;8.20;;
69621;SDS011;56841;55.964;37.674;2023-04-25T05:16:40;28.05;;;9.07;;
69621;SDS011;56841;55.964;37.674;2023-04-25T05:19:28;19.40;;;8.13;;
69621;SDS011;56841;55.964;37.674;2023-04-25T05:22:13;18.58;;;7.97;;
69621;SDS011;56841;55.964;37.674;2023-04-25T05:24:52;19.58;;;8.00;;
69621;SDS011;56841;55.964;37.674;2023-04-25T05:27:37;20.63;;;8.43;;
69621;SDS011;56841;55.964;37.674;2023-04-25T05:30:27;22.88;;;8.55;;
69621;SDS011;56841;55.964;37.674;2023-04-25T05:33:16;16.40;;;7.68;;
69621;SDS011;56841;55.964;37.674;2023-04-25T05:35:43;18.77;;;7.82;;
69621;SDS011;56841;55.964;37.674;2023-04-25T05:38:10;20.38;;;8.00;;
69621;SDS011;56841;55.964;37.674;2023-04-25T05:41:15;18.52;;;7.93;;
69621;SDS011;56841;55.964;37.674;2023-04-25T05:43:45;17.30;;;8.10;;
69621;SDS011;56841;55.964;37.674;2023-04-25T05:46:34;22.55;;;8.05;;
69621;SDS011;56841;55.964;37.674;2023-04-25T05:49:14;14.05;;;7.00;;
69621;SDS011;56841;55.964;37.674;2023-04-25T05:51:59;14.93;;;5.53;;
69621;SDS011;56841;55.964;37.674;2023-04-25T05:54:34;14.82;;;5.63;;
69621;SDS011;56841;55.964;37.674;2023-04-25T05:57:00;16.42;;;6.15;;
69621;SDS011;56841;55.964;37.674;2023-04-25T05:59:27;18.00;;;6.20;;
69621;SDS011;56841;55.964;37.674;2023-04-25T06:01:53;14.23;;;5.47;;
69621;SDS011;56841;55.964;37.674;2023-04-25T06:04:21;16.77;;;7.35;;
69621;SDS011;56841;55.964;37.674;2023-04-25T06:06:47;12.73;;;5.38;;
69621;SDS011;56841;55.964;37.674;2023-04-25T06:09:12;14.57;;;6.00;;
69621;SDS011;56841;55.964;37.674;2023-04-25T06:11:38;18.42;;;7.85;;
69621;SDS011;56841;55.964;37.674;2023-04-25T06:14:05;13.85;;;5.18;;
69621;SDS011;56841;55.964;37.674;2023-04-25T06:16:33;13.68;;;3.78;;
69621;SDS011;56841;55.964;37.674;2023-04-25T06:18:59;12.80;;;4.60;;
69621;SDS011;56841;55.964;37.674;2023-04-25T06:21:25;13.82;;;5.60;;
69621;SDS011;56841;55.964;37.674;2023-04-25T06:23:52;9.02;;;4.13;;
69621;SDS011;56841;55.964;37.674;2023-04-25T06:26:21;14.10;;;5.35;;
69621;SDS011;56841;55.964;37.674;2023-04-25T06:28:47;8.40;;;4.32;;
69621;SDS011;56841;55.964;37.674;2023-04-25T06:31:13;12.73;;;5.20;;
69621;SDS011;56841;55.964;37.674;2023-04-25T06:33:41;12.80;;;5.15;;
69621;SDS011;56841;55.964;37.674;2023-04-25T06:36:07;15.45;;;6.15;;
69621;SDS011;56841;55.964;37.674;2023-04-25T06:38:33;12.93;;;5.95;;
69621;SDS011;56841;55.964;37.674;2023-04-25T06:41:00;10.45;;;6.30;;
69621;SDS011;56841;55.964;37.674;2023-04-25T06:43:29;15.57;;;6.15;;
69621;SDS011;56841;55.964;37.674;2023-04-25T06:46:30;14.35;;;5.80;;
69621;SDS011;56841;55.964;37.674;2023-04-25T06:48:57;12.98;;;5.97;;
69621;SDS011;56841;55.964;37.674;2023-04-25T06:51:23;14.30;;;5.68;;
69621;SDS011;56841;55.964;37.674;2023-04-25T06:53:52;15.57;;;5.70;;
69621;SDS011;56841;55.964;37.674;2023-04-25T06:56:25;12.35;;;5.30;;
69621;SDS011;56841;55.964;37.674;2023-04-25T06:58:59;16.00;;;5.00;;
69621;SDS011;56841;55.964;37.674;2023-04-25T07:01:34;12.82;;;5.03;;
69621;SDS011;56841;55.964;37.674;2023-04-25T07:04:04;9.85;;;4.65;;
69621;SDS011;56841;55.964;37.674;2023-04-25T07:06:33;16.10;;;5.60;;
69621;SDS011;56841;55.964;37.674;2023-04-25T07:08:59;16.73;;;5.53;;
69621;SDS011;56841;55.964;37.674;2023-04-25T07:11:25;11.80;;;4.55;;
69621;SDS011;56841;55.964;37.674;2023-04-25T07:13:51;10.65;;;4.25;;
69621;SDS011;56841;55.964;37.674;2023-04-25T07:16:17;9.13;;;4.65;;
69621;SDS011;56841;55.964;37.674;2023-04-25T07:18:43;12.88;;;4.30;;
69621;SDS011;56841;55.964;37.674;2023-04-25T07:21:09;10.98;;;4.47;;
69621;SDS011;56841;55.964;37.674;2023-04-25T07:23:36;6.22;;;4.10;;
69621;SDS011;56841;55.964;37.674;2023-04-25T07:26:08;12.43;;;3.90;;
69621;SDS011;56841;55.964;37.674;2023-04-25T07:28:38;9.73;;;3.60;;
69621;SDS011;56841;55.964;37.674;2023-04-25T07:31:03;8.18;;;3.95;;
69621;SDS011;56841;55.964;37.674;2023-04-25T07:33:31;11.75;;;4.15;;
69621;SDS011;56841;55.964;37.674;2023-04-25T07:35:56;5.60;;;2.80;;
69621;SDS011;56841;55.964;37.674;2023-04-25T07:38:23;9.98;;;3.97;;
69621;SDS011;56841;55.964;37.674;2023-04-25T07:40:49;7.90;;;3.70;;
69621;SDS011;56841;55.964;37.674;2023-04-25T07:43:15;11.82;;;4.00;;
69621;SDS011;56841;55.964;37.674;2023-04-25T07:45:56;10.45;;;4.07;;
69621;SDS011;56841;55.964;37.674;2023-04-25T07:48:22;7.47;;;3.60;;
69621;SDS011;56841;55.964;37.674;2023-04-25T07:50:51;9.32;;;3.92;;
69621;SDS011;56841;55.964;37.674;2023-04-25T07:53:17;5.75;;;2.72;;
69621;SDS011;56841;55.964;37.674;2023-04-25T07:56:03;9.10;;;4.28;;
69621;SDS011;56841;55.964;37.674;2023-04-25T07:58:32;8.82;;;3.85;;
69621;SDS011;56841;55.964;37.674;2023-04-25T08:01:01;11.10;;;3.97;;
69621;SDS011;56841;55.964;37.674;2023-04-25T08:03:33;9.43;;;4.18;;
69621;SDS011;56841;55.964;37.674;2023-04-25T08:06:02;10.40;;;4.50;;
69621;SDS011;56841;55.964;37.674;2023-04-25T08:08:30;12.02;;;4.43;;
69621;SDS011;56841;55.964;37.674;2023-04-25T08:10:56;8.27;;;4.00;;
69621;SDS011;56841;55.964;37.674;2023-04-25T08:13:22;15.32;;;4.40;;
69621;SDS011;56841;55.964;37.674;2023-04-25T08:15:48;14.45;;;4.53;;
69621;SDS011;56841;55.964;37.674;2023-04-25T08:18:14;11.25;;;4.78;;
69621;SDS011;56841;55.964;37.674;2023-04-25T08:20:41;9.23;;;4.50;;
69621;SDS011;56841;55.964;37.674;2023-04-25T08:23:09;8.30;;;4.10;;
69621;SDS011;56841;55.964;37.674;2023-04-25T08:25:50;13.23;;;3.72;;
69621;SDS011;56841;55.964;37.674;2023-04-25T08:28:20;11.25;;;4.38;;
69621;SDS011;56841;55.964;37.674;2023-04-25T08:30:46;8.57;;;4.43;;
69621;SDS011;56841;55.964;37.674;2023-04-25T08:33:14;8.48;;;3.90;;
69621;SDS011;56841;55.964;37.674;2023-04-25T08:35:46;9.27;;;3.40;;
69621;SDS011;56841;55.964;37.674;2023-04-25T08:38:13;14.13;;;4.43;;
69621;SDS011;56841;55.964;37.674;2023-04-25T08:40:39;14.80;;;4.20;;
69621;SDS011;56841;55.964;37.674;2023-04-25T08:43:14;9.20;;;4.03;;
69621;SDS011;56841;55.964;37.674;2023-04-25T08:45:44;7.85;;;3.83;;
69621;SDS011;56841;55.964;37.674;2023-04-25T08:48:19;11.10;;;3.72;;
69621;SDS011;56841;55.964;37.674;2023-04-25T08:50:51;10.70;;;4.10;;
69621;SDS011;56841;55.964;37.674;2023-04-25T08:53:22;8.20;;;3.70;;
69621;SDS011;56841;55.964;37.674;2023-04-25T08:55:55;11.45;;;3.90;;
69621;SDS011;56841;55.964;37.674;2023-04-25T08:58:22;9.52;;;3.75;;
69621;SDS011;56841;55.964;37.674;2023-04-25T09:00:49;13.80;;;3.90;;
69621;SDS011;56841;55.964;37.674;2023-04-25T09:03:18;15.30;;;4.13;;
69621;SDS011;56841;55.964;37.674;2023-04-25T09:05:46;15.35;;;3.90;;
69621;SDS011;56841;55.964;37.674;2023-04-25T09:08:14;15.55;;;3.80;;
69621;SDS011;56841;55.964;37.674;2023-04-25T09:10:41;9.52;;;3.92;;
69621;SDS011;56841;55.964;37.674;2023-04-25T09:13:12;12.18;;;3.72;;
69621;SDS011;56841;55.964;37.674;2023-04-25T09:16:00;5.95;;;3.30;;
69621;SDS011;56841;55.964;37.674;2023-04-25T09:18:37;7.30;;;3.50;;
69621;SDS011;56841;55.964;37.674;2023-04-25T09:21:05;15.45;;;3.50;;
69621;SDS011;56841;55.964;37.674;2023-04-25T09:23:43;13.50;;;3.92;;
69621;SDS011;56841;55.964;37.674;2023-04-25T09:26:10;10.43;;;4.28;;
69621;SDS011;56841;55.964;37.674;2023-04-25T09:28:40;8.82;;;3.28;;
69621;SDS011;56841;55.964;37.674;2023-04-25T09:31:11;10.48;;;3.10;;
69621;SDS011;56841;55.964;37.674;2023-04-25T09:33:44;4.88;;;3.13;;
69621;SDS011;56841;55.964;37.674;2023-04-25T09:36:11;9.52;;;3.40;;
69621;SDS011;56841;55.964;37.674;2023-04-25T09:38:49;8.07;;;3.33;;
69621;SDS011;56841;55.964;37.674;2023-04-25T09:41:31;11.20;;;3.25;;
69621;SDS011;56841;55.964;37.674;2023-04-25T09:44:01;9.48;;;3.65;;
69621;SDS011;56841;55.964;37.674;2023-04-25T09:46:36;9.63;;;3.65;;
69621;SDS011;56841;55.964;37.674;2023-04-25T09:49:06;5.25;;;3.25;;
69621;SDS011;56841;55.964;37.674;2023-04-25T09:51:39;7.53;;;3.40;;
69621;SDS011;56841;55.964;37.674;2023-04-25T09:54:06;11.05;;;3.50;;
69621;SDS011;56841;55.964;37.674;2023-04-25T09:56:45;6.53;;;3.35;;
69621;SDS011;56841;55.964;37.674;2023-04-25T09:59:13;9.18;;;3.85;;
69621;SDS011;56841;55.964;37.674;2023-04-25T10:01:41;9.43;;;3.65;;
69621;SDS011;56841;55.964;37.674;2023-04-25T10:04:19;6.03;;;3.10;;
69621;SDS011;56841;55.964;37.674;2023-04-25T10:06:58;6.30;;;2.50;;
69621;SDS011;56841;55.964;37.674;2023-04-25T10:09:26;13.93;;;3.60;;
69621;SDS011;56841;55.964;37.674;2023-04-25T10:11:57;7.38;;;2.72;;
69621;SDS011;56841;55.964;37.674;2023-04-25T10:14:24;6.05;;;2.90;;
69621;SDS011;56841;55.964;37.674;2023-04-25T10:16:50;16.75;;;3.53;;
69621;SDS011;56841;55.964;37.674;2023-04-25T10:19:19;5.95;;;3.20;;
69621;SDS011;56841;55.964;37.674;2023-04-25T10:21:48;7.88;;;3.38;;
69621;SDS011;56841;55.964;37.674;2023-04-25T10:24:17;7.22;;;3.13;;
69621;SDS011;56841;55.964;37.674;2023-04-25T10:26:44;7.60;;;3.22;;
69621;SDS011;56841;55.964;37.674;2023-04-25T10:29:11;10.95;;;3.33;;
69621;SDS011;56841;55.964;37.674;2023-04-25T10:31:44;7.88;;;2.97;;
69621;SDS011;56841;55.964;37.674;2023-04-25T10:34:12;6.32;;;2.90;;
69621;SDS011;56841;55.964;37.674;2023-04-25T10:36:38;6.03;;;2.80;;
69621;SDS011;56841;55.964;37.674;2023-04-25T10:39:05;7.25;;;2.90;;
69621;SDS011;56841;55.964;37.674;2023-04-25T10:41:48;9.13;;;3.00;;
69621;SDS011;56841;55.964;37.674;2023-04-25T10:44:19;7.47;;;3.00;;
69621;SDS011;56841;55.964;37.674;2023-04-25T10:46:45;7.18;;;2.80;;
69621;SDS011;56841;55.964;37.674;2023-04-25T10:54:57;10.50;;;3.25;;
69621;SDS011;56841;55.964;37.674;2023-04-25T10:57:28;6.45;;;3.00;;
69621;SDS011;56841;55.964;37.674;2023-04-25T11:00:12;5.68;;;3.15;;
69621;SDS011;56841;55.964;37.674;2023-04-25T11:05:15;5.82;;;3.05;;
69621;SDS011;56841;55.964;37.674;2023-04-25T11:07:52;11.05;;;2.75;;
69621;SDS011;56841;55.964;37.674;2023-04-25T11:10:29;9.45;;;3.00;;
69621;SDS011;56841;55.964;37.674;2023-04-25T11:12:57;9.15;;;2.70;;
69621;SDS011;56841;55.964;37.674;2023-04-25T11:15:23;5.50;;;2.75;;
69621;SDS011;56841;55.964;37.674;2023-04-25T11:17:53;5.88;;;2.60;;
69621;SDS011;56841;55.964;37.674;2023-04-25T11:20:21;4.90;;;2.40;;
69621;SDS011;56841;55.964;37.674;2023-04-25T11:22:48;6.20;;;2.53;;
69621;SDS011;56841;55.964;37.674;2023-04-25T11:25:15;12.52;;;2.35;;
69621;SDS011;56841;55.964;37.674;2023-04-25T11:27:51;4.90;;;2.40;;
69621;SDS011;56841;55.964;37.674;2023-04-25T11:30:18;9.52;;;2.15;;
69621;SDS011;56841;55.964;37.674;2023-04-25T11:32:45;5.57;;;2.28;;
69621;SDS011;56841;55.964;37.674;2023-04-25T11:35:11;11.13;;;2.92;;
69621;SDS011;56841;55.964;37.674;2023-04-25T11:37:40;6.05;;;2.50;;
69621;SDS011;56841;55.964;37.674;2023-04-25T11:40:07;5.65;;;2.30;;
69621;SDS011;56841;55.964;37.674;2023-04-25T11:42:38;8.82;;;2.65;;
69621;SDS011;56841;55.964;37.674;2023-04-25T11:45:08;8.32;;;2.30;;
69621;SDS011;56841;55.964;37.674;2023-04-25T11:47:35;7.57;;;2.67;;
69621;SDS011;56841;55.964;37.674;2023-04-25T11:50:01;5.30;;;2.33;;
69621;SDS011;56841;55.964;37.674;2023-04-25T11:52:39;6.45;;;2.10;;
69621;SDS011;56841;55.964;37.674;2023-04-25T11:55:12;6.65;;;2.45;;
69621;SDS011;56841;55.964;37.674;2023-04-25T11:57:40;6.18;;;2.33;;
69621;SDS011;56841;55.964;37.674;2023-04-25T12:00:08;8.07;;;2.30;;
69621;SDS011;56841;55.964;37.674;2023-04-25T12:02:41;6.85;;;2.20;;
69621;SDS011;56841;55.964;37.674;2023-04-25T12:05:08;12.32;;;2.30;;
69621;SDS011;56841;55.964;37.674;2023-04-25T12:07:35;6.50;;;2.15;;
69621;SDS011;56841;55.964;37.674;2023-04-25T12:10:09;4.57;;;2.30;;
69621;SDS011;56841;55.964;37.674;2023-04-25T12:12:37;7.13;;;2.78;;
69621;SDS011;56841;55.964;37.674;2023-04-25T12:15:17;7.82;;;2.70;;
69621;SDS011;56841;55.964;37.674;2023-04-25T12:17:50;6.85;;;2.88;;
69621;SDS011;56841;55.964;37.674;2023-04-25T12:20:18;7.72;;;2.50;;
69621;SDS011;56841;55.964;37.674;2023-04-25T12:22:48;10.90;;;2.70;;
69621;SDS011;56841;55.964;37.674;2023-04-25T12:25:33;3.95;;;2.75;;
69621;SDS011;56841;55.964;37.674;2023-04-25T12:28:19;5.85;;;2.50;;
69621;SDS011;56841;55.964;37.674;2023-04-25T12:31:00;7.88;;;2.58;;
69621;SDS011;56841;55.964;37.674;2023-04-25T12:33:27;6.72;;;2.15;;
69621;SDS011;56841;55.964;37.674;2023-04-25T12:35:54;7.47;;;2.58;;
69621;SDS011;56841;55.964;37.674;2023-04-25T12:38:27;7.30;;;2.58;;
69621;SDS011;56841;55.964;37.674;2023-04-25T12:40:55;6.63;;;2.25;;
69621;SDS011;56841;55.964;37.674;2023-04-25T12:43:22;10.88;;;3.10;;
69621;SDS011;56841;55.964;37.674;2023-04-25T12:45:49;6.63;;;2.55;;
69621;SDS011;56841;55.964;37.674;2023-04-25T12:48:16;12.00;;;3.50;;
69621;SDS011;56841;55.964;37.674;2023-04-25T12:50:43;10.40;;;3.40;;
69621;SDS011;56841;55.964;37.674;2023-04-25T12:53:09;6.60;;;3.40;;
69621;SDS011;56841;55.964;37.674;2023-04-25T12:55:36;6.15;;;3.30;;
69621;SDS011;56841;55.964;37.674;2023-04-25T12:58:02;7.90;;;3.22;;
69621;SDS011;56841;55.964;37.674;2023-04-25T13:00:30;8.00;;;2.70;;
69621;SDS011;56841;55.964;37.674;2023-04-25T13:02:57;7.05;;;4.15;;
69621;SDS011;56841;55.964;37.674;2023-04-25T13:05:23;9.77;;;2.67;;
69621;SDS011;56841;55.964;37.674;2023-04-25T13:07:49;6.53;;;3.10;;
69621;SDS011;56841;55.964;37.674;2023-04-25T13:10:14;19.33;;;3.30;;
69621;SDS011;56841;55.964;37.674;2023-04-25T13:12:40;12.00;;;3.15;;
69621;SDS011;56841;55.964;37.674;2023-04-25T13:15:06;10.43;;;3.50;;
69621;SDS011;56841;55.964;37.674;2023-04-25T13:17:34;7.78;;;3.03;;
69621;SDS011;56841;55.964;37.674;2023-04-25T13:20:00;5.13;;;2.90;;
69621;SDS011;56841;55.964;37.674;2023-04-25T13:22:29;7.82;;;2.92;;
69621;SDS011;56841;55.964;37.674;2023-04-25T13:24:55;5.95;;;2.95;;
69621;SDS011;56841;55.964;37.674;2023-04-25T13:27:21;6.65;;;2.67;;
69621;SDS011;56841;55.964;37.674;2023-04-25T13:29:47;7.32;;;3.40;;
69621;SDS011;56841;55.964;37.674;2023-04-25T13:32:13;8.63;;;3.15;;
69621;SDS011;56841;55.964;37.674;2023-04-25T13:34:38;7.05;;;3.13;;
69621;SDS011;56841;55.964;37.674;2023-04-25T13:37:04;6.30;;;3.15;;
69621;SDS011;56841;55.964;37.674;2023-04-25T13:39:30;6.90;;;3.00;;
69621;SDS011;56841;55.964;37.674;2023-04-25T13:41:56;6.78;;;3.03;;
69621;SDS011;56841;55.964;37.674;2023-04-25T13:44:22;8.48;;;2.72;;
69621;SDS011;56841;55.964;37.674;2023-04-25T13:46:48;6.65;;;3.20;;
69621;SDS011;56841;55.964;37.674;2023-04-25T13:49:14;5.60;;;3.10;;
69621;SDS011;56841;55.964;37.674;2023-04-25T13:51:40;6.53;;;3.30;;
69621;SDS011;56841;55.964;37.674;2023-04-25T13:54:07;5.13;;;3.33;;
69621;SDS011;56841;55.964;37.674;2023-04-25T13:56:33;8.40;;;3.45;;
69621;SDS011;56841;55.964;37.674;2023-04-25T13:59:00;10.60;;;3.78;;
69621;SDS011;56841;55.964;37.674;2023-04-25T14:01:26;6.78;;;2.88;;
69621;SDS011;56841;55.964;37.674;2023-04-25T14:03:53;6.05;;;3.20;;
69621;SDS011;56841;55.964;37.674;2023-04-25T14:06:19;7.05;;;3.72;;
69621;SDS011;56841;55.964;37.674;2023-04-25T14:08:49;6.60;;;3.63;;
69621;SDS011;56841;55.964;37.674;2023-04-25T14:11:15;5.85;;;3.10;;
69621;SDS011;56841;55.964;37.674;2023-04-25T14:13:44;6.35;;;3.42;;
69621;SDS011;56841;55.964;37.674;2023-04-25T14:16:10;5.40;;;3.50;;
69621;SDS011;56841;55.964;37.674;2023-04-25T14:18:36;9.32;;;3.60;;
69621;SDS011;56841;55.964;37.674;2023-04-25T14:21:02;6.95;;;3.20;;
69621;SDS011;56841;55.964;37.674;2023-04-25T14:23:28;5.38;;;3.10;;
69621;SDS011;56841;55.964;37.674;2023-04-25T14:25:54;5.78;;;3.03;;
69621;SDS011;56841;55.964;37.674;2023-04-25T14:28:20;7.30;;;3.85;;
69621;SDS011;56841;55.964;37.674;2023-04-25T14:30:46;9.02;;;3.70;;
69621;SDS011;56841;55.964;37.674;2023-04-25T14:33:11;6.47;;;2.90;;
69621;SDS011;56841;55.964;37.674;2023-04-25T14:35:38;7.03;;;3.55;;
69621;SDS011;56841;55.964;37.674;2023-04-25T14:38:04;6.72;;;3.22;;
69621;SDS011;56841;55.964;37.674;2023-04-25T14:40:30;5.05;;;3.60;;
69621;SDS011;56841;55.964;37.674;2023-04-25T14:42:56;5.97;;;3.40;;
69621;SDS011;56841;55.964;37.674;2023-04-25T14:45:22;6.55;;;3.50;;
69621;SDS011;56841;55.964;37.674;2023-04-25T14:47:47;8.75;;;3.10;;
69621;SDS011;56841;55.964;37.674;2023-04-25T14:50:13;6.75;;;2.85;;